Terminal Aerodrome Forecast
Issued by NWS Duluth, MN

Home | Current Version | Previous Version | Text Only | Print | Product List | Glossary On
Versions: 1 2 3 4 5 6 7 8 9 10 11 12 13 14 15 16 17 18 19 20 21 22 23 24 25 26
865
FTUS43 KDLH 312326
TAFINL
TAF
KINL 312326Z 0100/0124 12010KT 4SM BR VCSH OVC005
      TEMPO 0101/0103 1 1/2SM BR
     FM010300 13010KT 1 1/2SM BR OVC005
     FM011400 12008KT 5SM -SHRA BR SCT005 OVC012
     FM011700 19007KT 5SM -SHRA BR OVC013=

USA.gov is the U.S. government's official web portal to all federal, state and local government web resources and services.